Time;durP1;ratioP1;P1;durP2;ratioP2;P2;SDS_P1;SDS_P2;PMS_P1;PMS_P2;Temp;Humidity;BMP_temperature;BMP_pressure;BME280_temperature;BME280_humidity;BME280_pressure;Samples;Min_cycle;Max_cycle;Signal;HPM_P1;HPM_P2
2022/12/16 00:01:20;;;;;;;;;;;6.60;93.40;;;;;;5092848;28;19950;-88
2022/12/16 00:03:46;;;;;;;;;;;6.60;93.50;;;;;;5075010;28;20402;-89
2022/12/16 00:06:11;;;;;;;;;;;6.50;93.40;;;;;;5093077;28;19941;-88
2022/12/16 00:08:38;;;;;;;;;;;6.50;93.40;;;;;;5074982;28;19946;-88
2022/12/16 00:11:05;;;;;;;;;;;6.40;93.40;;;;;;5093087;28;19990;-88
2022/12/16 00:13:31;;;;;;;;;;;6.60;93.50;;;;;;5093011;28;20380;-88
2022/12/16 00:15:56;;;;;;;;;;;6.80;93.20;;;;;;5092950;28;20308;-88
2022/12/16 00:18:22;;;;;;;;;;;6.70;93.10;;;;;;5093005;28;19940;-88
2022/12/16 00:20:50;;;;;;;;;;;6.70;93.20;;;;;;5092623;28;20042;-88
2022/12/16 00:23:16;;;;;;;;;;;6.50;93.30;;;;;;5092961;28;20280;-88
2022/12/16 00:25:42;;;;;;;;;;;6.50;93.70;;;;;;5092892;28;19946;-88
2022/12/16 00:28:08;;;;;;;;;;;6.50;93.60;;;;;;5092925;28;19937;-88
2022/12/16 00:30:33;;;;;;;;;;;6.30;94.10;;;;;;5074560;28;19947;-88
2022/12/16 00:32:59;;;;;;;;;;;6.20;94.40;;;;;;5092867;28;19941;-88
2022/12/16 00:35:24;;;;;;;;;;;6.40;94.60;;;;;;5092849;28;19943;-88
2022/12/16 00:37:50;;;;;;;;;;;6.50;94.50;;;;;;5092841;28;20322;-88
2022/12/16 00:40:15;;;;;;;;;;;6.60;94.60;;;;;;5092747;28;20462;-88
2022/12/16 00:42:41;;;;;;;;;;;6.60;94.60;;;;;;5092744;28;20303;-88
2022/12/16 00:45:07;;;;;;;;;;;6.60;94.60;;;;;;5093798;28;20399;-88
2022/12/16 00:47:32;;;;;;;;;;;6.90;94.50;;;;;;5096494;28;20025;-89
2022/12/16 00:49:58;;;;;;;;;;;6.90;94.40;;;;;;5096501;28;19978;-88
2022/12/16 00:52:23;;;;;;;;;;;6.90;94.10;;;;;;5096375;28;19961;-88
2022/12/16 00:54:49;;;;;;;;;;;7.00;94.00;;;;;;5096238;28;20298;-88
2022/12/16 00:57:14;;;;;;;;;;;7.10;93.70;;;;;;5096334;28;19938;-88
2022/12/16 00:59:40;;;;;;;;;;;7.10;93.50;;;;;;5096119;28;19955;-88
2022/12/16 01:02:06;;;;;;;;;;;7.10;93.30;;;;;;5077849;28;20502;-88
2022/12/16 01:04:31;;;;;;;;;;;7.00;93.40;;;;;;5096247;28;20424;-88
2022/12/16 01:06:57;;;;;;;;;;;6.90;93.50;;;;;;5078016;28;19950;-88
2022/12/16 01:09:22;;;;;;;;;;;6.90;93.70;;;;;;5095888;28;20414;-88
2022/12/16 01:11:48;;;;;;;;;;;6.80;93.90;;;;;;5095778;28;19958;-88
2022/12/16 01:14:13;;;;;;;;;;;6.80;94.00;;;;;;5096281;28;19945;-88
2022/12/16 01:16:39;;;;;;;;;;;7.00;94.00;;;;;;5095997;28;20027;-88
2022/12/16 01:19:04;;;;;;;;;;;7.20;93.60;;;;;;5095731;28;19966;-88
2022/12/16 01:21:30;;;;;;;;;;;7.20;93.40;;;;;;5095695;28;19972;-88
2022/12/16 01:23:55;;;;;;;;;;;7.10;93.40;;;;;;5095839;28;19940;-88
2022/12/16 01:26:21;;;;;;;;;;;7.30;93.40;;;;;;5095777;28;19948;-89
2022/12/16 01:28:47;;;;;;;;;;;7.30;93.30;;;;;;5095760;28;19948;-89
2022/12/16 01:31:14;;;;;;;;;;;7.20;93.50;;;;;;5095366;28;19949;-89
2022/12/16 01:33:40;;;;;;;;;;;7.20;93.40;;;;;;5095913;28;19942;-88
2022/12/16 01:36:06;;;;;;;;;;;7.20;93.60;;;;;;5095568;28;20041;-89
2022/12/16 01:38:32;;;;;;;;;;;7.20;93.40;;;;;;5095768;28;19941;-89
2022/12/16 01:40:58;;;;;;;;;;;7.10;93.50;;;;;;5095403;28;20396;-88
2022/12/16 01:43:25;;;;;;;;;;;7.10;93.60;;;;;;5095456;28;19934;-89
2022/12/16 01:45:52;;;;;;;;;;;7.00;93.70;;;;;;5095281;28;19950;-88
2022/12/16 01:48:33;;;;;;;;;;;7.10;93.50;;;;;;5095371;28;20000;-88
2022/12/16 01:51:02;;;;;;;;;;;7.00;93.60;;;;;;5095306;28;19946;-88
2022/12/16 01:53:29;;;;;;;;;;;6.90;93.90;;;;;;5095364;28;19984;-88
2022/12/16 01:55:55;;;;;;;;;;;6.90;94.00;;;;;;5095126;28;19941;-89
2022/12/16 01:58:25;;;;;;;;;;;6.90;94.10;;;;;;5094471;28;19943;-88
2022/12/16 02:00:51;;;;;;;;;;;7.00;94.10;;;;;;5094711;28;20327;-88
2022/12/16 02:03:17;;;;;;;;;;;7.00;94.20;;;;;;5076869;28;19947;-89
2022/12/16 02:05:43;;;;;;;;;;;7.10;94.10;;;;;;5095041;28;20077;-88
2022/12/16 02:08:09;;;;;;;;;;;7.20;94.10;;;;;;5095194;28;20038;-89
2022/12/16 02:10:43;;;;;;;;;;;7.30;94.10;;;;;;5094926;28;20338;-88
2022/12/16 02:13:12;;;;;;;;;;;7.40;94.10;;;;;;5095079;28;19945;-89
2022/12/16 02:15:44;;;;;;;;;;;7.50;93.90;;;;;;5094849;28;19952;-89
2022/12/16 02:18:28;;;;;;;;;;;7.80;93.60;;;;;;5094690;28;19947;-89
2022/12/16 02:21:03;;;;;;;;;;;7.90;92.50;;;;;;5103591;22;19962;-88
2022/12/16 02:23:44;;;;;;;;;;;7.70;92.10;;;;;;5115080;28;19946;-89
2022/12/16 02:26:09;;;;;;;;;;;7.50;92.20;;;;;;5115238;28;20403;-89
2022/12/16 02:28:53;;;;;;;;;;;7.40;92.40;;;;;;5114898;28;19941;-89
2022/12/16 02:31:19;;;;;;;;;;;7.30;92.60;;;;;;5114680;28;19944;-88
2022/12/16 02:33:52;;;;;;;;;;;7.10;93.30;;;;;;5114881;28;19942;-88
2022/12/16 02:36:27;;;;;;;;;;;7.10;93.20;;;;;;5114794;28;19940;-88
2022/12/16 02:38:52;;;;;;;;;;;7.10;93.40;;;;;;5114293;28;19995;-88
2022/12/16 02:41:18;;;;;;;;;;;7.20;93.50;;;;;;5114514;28;19952;-89
2022/12/16 02:43:44;;;;;;;;;;;7.20;93.40;;;;;;5114675;28;20313;-89
2022/12/16 02:46:10;;;;;;;;;;;7.10;93.50;;;;;;5114571;28;19939;-88
2022/12/16 02:48:36;;;;;;;;;;;7.10;93.60;;;;;;5096302;28;19937;-88
2022/12/16 02:51:02;;;;;;;;;;;7.00;93.70;;;;;;5114532;28;19963;-89
2022/12/16 02:53:28;;;;;;;;;;;7.00;93.90;;;;;;5099315;28;19956;-89
2022/12/16 02:56:14;;;;;;;;;;;7.00;94.00;;;;;;5094017;28;19942;-89
2022/12/16 02:58:54;;;;;;;;;;;7.00;94.10;;;;;;5094010;28;20021;-88
2022/12/16 03:01:29;;;;;;;;;;;7.00;94.20;;;;;;5093963;28;19952;-88
2022/12/16 03:04:09;;;;;;;;;;;7.00;94.20;;;;;;5093904;28;19941;-88
2022/12/16 03:06:37;;;;;;;;;;;7.00;94.30;;;;;;5093893;28;19935;-88
2022/12/16 03:09:05;;;;;;;;;;;6.90;94.50;;;;;;5075524;28;19942;-88
2022/12/16 03:11:31;;;;;;;;;;;6.90;94.80;;;;;;5093811;28;19948;-88
2022/12/16 03:13:57;;;;;;;;;;;6.80;94.90;;;;;;5093753;28;19940;-87
2022/12/16 03:16:25;;;;;;;;;;;6.70;94.90;;;;;;5075626;28;19941;-88
2022/12/16 03:18:53;;;;;;;;;;;6.50;95.10;;;;;;5093653;28;19937;-88
2022/12/16 03:21:20;;;;;;;;;;;6.40;95.30;;;;;;5093493;28;19980;-88
2022/12/16 03:23:48;;;;;;;;;;;6.40;95.40;;;;;;5093586;28;19983;-88
2022/12/16 03:26:46;;;;;;;;;;;6.30;95.50;;;;;;5093589;28;19939;-88
2022/12/16 03:29:17;;;;;;;;;;;6.30;95.60;;;;;;5037633;28;19945;-88
2022/12/16 03:31:50;;;;;;;;;;;6.30;95.60;;;;;;5093474;28;19936;-88
2022/12/16 03:34:15;;;;;;;;;;;6.30;95.70;;;;;;5093435;28;19940;-88
2022/12/16 03:36:42;;;;;;;;;;;6.20;95.60;;;;;;5093445;28;19941;-88
2022/12/16 03:39:09;;;;;;;;;;;6.30;95.70;;;;;;5093089;28;20057;-88
2022/12/16 03:41:35;;;;;;;;;;;6.30;95.70;;;;;;5093369;28;19944;-88
2022/12/16 03:44:01;;;;;;;;;;;6.30;95.70;;;;;;5093291;28;20313;-88
2022/12/16 03:46:26;;;;;;;;;;;6.30;95.70;;;;;;5093337;28;20025;-88
2022/12/16 03:48:52;;;;;;;;;;;6.30;95.70;;;;;;5092838;28;20390;-88
2022/12/16 03:51:18;;;;;;;;;;;6.20;95.70;;;;;;5093266;28;20290;-88
2022/12/16 03:53:44;;;;;;;;;;;6.20;95.70;;;;;;5093012;28;19957;-88
2022/12/16 03:56:10;;;;;;;;;;;6.30;95.70;;;;;;5093212;28;19936;-88
2022/12/16 03:58:38;;;;;;;;;;;6.20;95.60;;;;;;5093169;28;19948;-88
2022/12/16 04:01:04;;;;;;;;;;;6.40;95.60;;;;;;5093093;28;19962;-88
2022/12/16 04:03:30;;;;;;;;;;;6.20;95.60;;;;;;5093104;28;19936;-88
2022/12/16 04:05:55;;;;;;;;;;;6.30;95.70;;;;;;5093108;28;19938;-88
2022/12/16 04:08:21;;;;;;;;;;;6.30;95.70;;;;;;5092798;28;19937;-88
2022/12/16 04:24:31;;;;;;;;;;;6.30;95.60;;;;;;5097320;28;19949;-88
2022/12/16 04:32:25;;;;;;;;;;;6.30;95.60;;;;;;5097178;28;19960;-88
2022/12/16 04:34:51;;;;;;;;;;;6.20;95.50;;;;;;5096786;28;19943;-88
